sensor_id;sensor_type;location;lat;lon;timestamp;P1;durP1;ratioP1;P2;durP2;ratioP2
38725;SDS011;24474;48.906;8.808;2023-05-07T00:02:19;5.78;;;2.95;;
38725;SDS011;24474;48.906;8.808;2023-05-07T00:04:46;4.80;;;2.90;;
38725;SDS011;24474;48.906;8.808;2023-05-07T00:07:12;4.50;;;2.65;;
38725;SDS011;24474;48.906;8.808;2023-05-07T00:09:38;4.00;;;3.00;;
38725;SDS011;24474;48.906;8.808;2023-05-07T00:12:06;6.03;;;3.13;;
38725;SDS011;24474;48.906;8.808;2023-05-07T00:14:33;4.35;;;2.85;;
38725;SDS011;24474;48.906;8.808;2023-05-07T00:16:59;4.13;;;2.70;;
38725;SDS011;24474;48.906;8.808;2023-05-07T00:19:24;4.15;;;2.70;;
38725;SDS011;24474;48.906;8.808;2023-05-07T00:21:51;4.03;;;3.08;;
38725;SDS011;24474;48.906;8.808;2023-05-07T00:24:19;4.53;;;2.80;;
38725;SDS011;24474;48.906;8.808;2023-05-07T00:26:46;3.80;;;2.70;;
38725;SDS011;24474;48.906;8.808;2023-05-07T00:29:13;4.18;;;3.10;;
38725;SDS011;24474;48.906;8.808;2023-05-07T00:31:40;4.35;;;2.88;;
38725;SDS011;24474;48.906;8.808;2023-05-07T00:34:07;4.95;;;2.80;;
38725;SDS011;24474;48.906;8.808;2023-05-07T00:36:34;4.38;;;3.13;;
38725;SDS011;24474;48.906;8.808;2023-05-07T00:39:01;5.93;;;3.17;;
38725;SDS011;24474;48.906;8.808;2023-05-07T00:41:31;3.60;;;2.70;;
38725;SDS011;24474;48.906;8.808;2023-05-07T00:43:58;5.18;;;3.13;;
38725;SDS011;24474;48.906;8.808;2023-05-07T00:46:28;3.28;;;2.83;;
38725;SDS011;24474;48.906;8.808;2023-05-07T00:48:57;4.68;;;2.83;;
38725;SDS011;24474;48.906;8.808;2023-05-07T00:51:25;4.78;;;3.00;;
38725;SDS011;24474;48.906;8.808;2023-05-07T00:53:53;4.55;;;2.70;;
38725;SDS011;24474;48.906;8.808;2023-05-07T00:56:20;6.07;;;2.92;;
38725;SDS011;24474;48.906;8.808;2023-05-07T00:58:47;4.43;;;3.50;;
38725;SDS011;24474;48.906;8.808;2023-05-07T01:01:15;6.43;;;3.60;;
38725;SDS011;24474;48.906;8.808;2023-05-07T01:03:42;5.78;;;3.45;;
38725;SDS011;24474;48.906;8.808;2023-05-07T01:06:10;5.07;;;3.42;;
38725;SDS011;24474;48.906;8.808;2023-05-07T01:08:42;4.90;;;3.47;;
38725;SDS011;24474;48.906;8.808;2023-05-07T01:11:10;5.18;;;2.95;;
38725;SDS011;24474;48.906;8.808;2023-05-07T01:13:38;6.97;;;3.33;;
38725;SDS011;24474;48.906;8.808;2023-05-07T01:16:06;4.97;;;3.40;;
38725;SDS011;24474;48.906;8.808;2023-05-07T01:18:40;5.35;;;3.42;;
38725;SDS011;24474;48.906;8.808;2023-05-07T01:21:07;5.03;;;3.38;;
38725;SDS011;24474;48.906;8.808;2023-05-07T01:23:37;6.97;;;3.35;;
38725;SDS011;24474;48.906;8.808;2023-05-07T01:26:05;5.40;;;3.30;;
38725;SDS011;24474;48.906;8.808;2023-05-07T01:28:31;5.38;;;3.00;;
38725;SDS011;24474;48.906;8.808;2023-05-07T01:31:02;5.53;;;3.00;;
38725;SDS011;24474;48.906;8.808;2023-05-07T01:33:31;5.28;;;3.28;;
38725;SDS011;24474;48.906;8.808;2023-05-07T01:36:01;5.87;;;3.33;;
38725;SDS011;24474;48.906;8.808;2023-05-07T01:38:32;4.47;;;3.30;;
38725;SDS011;24474;48.906;8.808;2023-05-07T01:41:00;4.90;;;3.15;;
38725;SDS011;24474;48.906;8.808;2023-05-07T01:43:28;4.35;;;2.95;;
38725;SDS011;24474;48.906;8.808;2023-05-07T01:45:56;4.43;;;3.30;;
38725;SDS011;24474;48.906;8.808;2023-05-07T01:48:24;4.68;;;3.05;;
38725;SDS011;24474;48.906;8.808;2023-05-07T01:50:52;4.05;;;2.58;;
38725;SDS011;24474;48.906;8.808;2023-05-07T01:53:20;6.00;;;2.28;;
38725;SDS011;24474;48.906;8.808;2023-05-07T01:55:47;3.67;;;2.33;;
38725;SDS011;24474;48.906;8.808;2023-05-07T01:58:13;2.28;;;1.85;;
38725;SDS011;24474;48.906;8.808;2023-05-07T02:00:39;3.95;;;2.10;;
38725;SDS011;24474;48.906;8.808;2023-05-07T02:03:07;3.78;;;1.95;;
38725;SDS011;24474;48.906;8.808;2023-05-07T02:05:34;4.75;;;2.55;;
38725;SDS011;24474;48.906;8.808;2023-05-07T02:08:01;3.10;;;2.22;;
38725;SDS011;24474;48.906;8.808;2023-05-07T02:10:28;4.13;;;2.50;;
38725;SDS011;24474;48.906;8.808;2023-05-07T02:12:55;5.47;;;2.95;;
38725;SDS011;24474;48.906;8.808;2023-05-07T02:15:23;4.47;;;3.15;;
38725;SDS011;24474;48.906;8.808;2023-05-07T02:17:59;4.22;;;3.20;;
38725;SDS011;24474;48.906;8.808;2023-05-07T02:20:28;4.03;;;3.10;;
38725;SDS011;24474;48.906;8.808;2023-05-07T02:22:54;5.32;;;3.22;;
38725;SDS011;24474;48.906;8.808;2023-05-07T02:25:21;5.70;;;3.10;;
38725;SDS011;24474;48.906;8.808;2023-05-07T02:27:47;3.83;;;2.75;;
38725;SDS011;24474;48.906;8.808;2023-05-07T02:30:13;6.15;;;3.20;;
38725;SDS011;24474;48.906;8.808;2023-05-07T02:32:40;4.40;;;2.92;;
38725;SDS011;24474;48.906;8.808;2023-05-07T02:35:07;4.63;;;2.90;;
38725;SDS011;24474;48.906;8.808;2023-05-07T02:37:33;5.22;;;3.05;;
38725;SDS011;24474;48.906;8.808;2023-05-07T02:40:04;5.05;;;3.20;;
38725;SDS011;24474;48.906;8.808;2023-05-07T02:42:32;4.60;;;3.47;;
38725;SDS011;24474;48.906;8.808;2023-05-07T02:44:58;7.57;;;3.72;;
38725;SDS011;24474;48.906;8.808;2023-05-07T02:47:24;6.15;;;3.60;;
38725;SDS011;24474;48.906;8.808;2023-05-07T02:49:54;4.15;;;3.05;;
38725;SDS011;24474;48.906;8.808;2023-05-07T02:52:20;4.00;;;3.05;;
38725;SDS011;24474;48.906;8.808;2023-05-07T02:54:48;6.97;;;3.88;;
38725;SDS011;24474;48.906;8.808;2023-05-07T02:57:13;4.38;;;3.20;;
38725;SDS011;24474;48.906;8.808;2023-05-07T02:59:41;5.90;;;3.10;;
38725;SDS011;24474;48.906;8.808;2023-05-07T03:02:09;4.80;;;2.92;;
38725;SDS011;24474;48.906;8.808;2023-05-07T03:04:36;3.70;;;2.90;;
38725;SDS011;24474;48.906;8.808;2023-05-07T03:07:05;4.40;;;2.60;;
38725;SDS011;24474;48.906;8.808;2023-05-07T03:09:31;5.00;;;2.70;;
38725;SDS011;24474;48.906;8.808;2023-05-07T03:11:58;3.85;;;2.80;;
38725;SDS011;24474;48.906;8.808;2023-05-07T03:14:23;5.78;;;2.47;;
38725;SDS011;24474;48.906;8.808;2023-05-07T03:16:51;5.38;;;2.40;;
38725;SDS011;24474;48.906;8.808;2023-05-07T03:19:17;3.67;;;2.45;;
38725;SDS011;24474;48.906;8.808;2023-05-07T03:21:44;5.43;;;2.65;;
38725;SDS011;24474;48.906;8.808;2023-05-07T03:24:10;4.88;;;3.50;;
38725;SDS011;24474;48.906;8.808;2023-05-07T03:26:35;3.70;;;3.08;;
38725;SDS011;24474;48.906;8.808;2023-05-07T03:29:02;4.97;;;3.13;;
38725;SDS011;24474;48.906;8.808;2023-05-07T03:31:29;4.57;;;3.30;;
38725;SDS011;24474;48.906;8.808;2023-05-07T03:33:57;5.65;;;3.30;;
38725;SDS011;24474;48.906;8.808;2023-05-07T03:36:24;5.05;;;3.75;;
38725;SDS011;24474;48.906;8.808;2023-05-07T03:38:53;4.80;;;3.80;;
38725;SDS011;24474;48.906;8.808;2023-05-07T03:41:20;5.45;;;3.20;;
38725;SDS011;24474;48.906;8.808;2023-05-07T03:43:45;4.70;;;3.20;;
38725;SDS011;24474;48.906;8.808;2023-05-07T03:46:12;4.35;;;2.80;;
38725;SDS011;24474;48.906;8.808;2023-05-07T03:48:38;3.33;;;2.50;;
38725;SDS011;24474;48.906;8.808;2023-05-07T03:51:06;3.65;;;2.55;;
38725;SDS011;24474;48.906;8.808;2023-05-07T03:53:32;5.05;;;2.80;;
38725;SDS011;24474;48.906;8.808;2023-05-07T03:55:59;4.78;;;2.78;;
38725;SDS011;24474;48.906;8.808;2023-05-07T03:58:26;7.07;;;3.03;;
38725;SDS011;24474;48.906;8.808;2023-05-07T04:00:53;5.30;;;3.17;;
38725;SDS011;24474;48.906;8.808;2023-05-07T04:03:20;4.90;;;3.08;;
38725;SDS011;24474;48.906;8.808;2023-05-07T04:05:47;4.00;;;3.10;;
38725;SDS011;24474;48.906;8.808;2023-05-07T04:08:13;4.13;;;2.88;;
38725;SDS011;24474;48.906;8.808;2023-05-07T04:10:39;4.68;;;2.85;;
38725;SDS011;24474;48.906;8.808;2023-05-07T04:13:06;4.93;;;2.88;;
38725;SDS011;24474;48.906;8.808;2023-05-07T04:15:33;4.32;;;2.40;;
38725;SDS011;24474;48.906;8.808;2023-05-07T04:17:58;5.40;;;2.70;;
38725;SDS011;24474;48.906;8.808;2023-05-07T04:20:25;4.22;;;2.55;;
38725;SDS011;24474;48.906;8.808;2023-05-07T04:22:51;4.30;;;2.60;;
38725;SDS011;24474;48.906;8.808;2023-05-07T04:25:18;4.75;;;2.70;;
38725;SDS011;24474;48.906;8.808;2023-05-07T04:27:44;5.50;;;2.67;;
38725;SDS011;24474;48.906;8.808;2023-05-07T04:30:11;5.45;;;2.75;;
38725;SDS011;24474;48.906;8.808;2023-05-07T04:32:40;6.90;;;3.08;;
38725;SDS011;24474;48.906;8.808;2023-05-07T04:35:07;4.75;;;3.20;;
38725;SDS011;24474;48.906;8.808;2023-05-07T04:37:34;4.57;;;3.00;;
38725;SDS011;24474;48.906;8.808;2023-05-07T04:40:00;4.95;;;3.10;;
38725;SDS011;24474;48.906;8.808;2023-05-07T04:42:27;6.28;;;3.80;;
38725;SDS011;24474;48.906;8.808;2023-05-07T04:44:54;5.07;;;4.05;;
38725;SDS011;24474;48.906;8.808;2023-05-07T04:47:19;6.25;;;3.92;;
38725;SDS011;24474;48.906;8.808;2023-05-07T04:49:46;5.25;;;3.88;;
38725;SDS011;24474;48.906;8.808;2023-05-07T04:52:12;5.53;;;3.53;;
38725;SDS011;24474;48.906;8.808;2023-05-07T04:54:39;4.63;;;3.20;;
38725;SDS011;24474;48.906;8.808;2023-05-07T04:57:06;5.72;;;3.55;;
38725;SDS011;24474;48.906;8.808;2023-05-07T04:59:33;6.85;;;3.40;;
38725;SDS011;24474;48.906;8.808;2023-05-07T05:02:00;4.03;;;2.90;;
38725;SDS011;24474;48.906;8.808;2023-05-07T05:04:27;4.55;;;2.90;;
38725;SDS011;24474;48.906;8.808;2023-05-07T05:06:55;6.68;;;3.38;;
38725;SDS011;24474;48.906;8.808;2023-05-07T05:09:22;5.18;;;3.00;;
38725;SDS011;24474;48.906;8.808;2023-05-07T05:11:49;6.22;;;3.05;;
38725;SDS011;24474;48.906;8.808;2023-05-07T05:14:16;6.15;;;3.33;;
38725;SDS011;24474;48.906;8.808;2023-05-07T05:19:13;5.53;;;3.45;;
38725;SDS011;24474;48.906;8.808;2023-05-07T05:21:40;4.63;;;3.22;;
38725;SDS011;24474;48.906;8.808;2023-05-07T05:24:07;7.80;;;3.85;;
38725;SDS011;24474;48.906;8.808;2023-05-07T05:26:34;5.80;;;3.97;;
38725;SDS011;24474;48.906;8.808;2023-05-07T05:29:02;6.57;;;3.75;;
38725;SDS011;24474;48.906;8.808;2023-05-07T05:31:31;7.82;;;4.00;;
38725;SDS011;24474;48.906;8.808;2023-05-07T05:33:59;6.05;;;3.97;;
38725;SDS011;24474;48.906;8.808;2023-05-07T05:36:26;8.20;;;4.05;;
38725;SDS011;24474;48.906;8.808;2023-05-07T05:38:53;5.68;;;3.50;;
38725;SDS011;24474;48.906;8.808;2023-05-07T05:41:21;6.75;;;4.10;;
38725;SDS011;24474;48.906;8.808;2023-05-07T05:43:47;4.75;;;3.65;;
38725;SDS011;24474;48.906;8.808;2023-05-07T05:46:16;5.35;;;3.95;;
38725;SDS011;24474;48.906;8.808;2023-05-07T05:48:41;6.18;;;3.50;;
38725;SDS011;24474;48.906;8.808;2023-05-07T05:51:08;6.65;;;3.67;;
38725;SDS011;24474;48.906;8.808;2023-05-07T05:53:35;6.30;;;4.03;;
38725;SDS011;24474;48.906;8.808;2023-05-07T05:56:02;5.32;;;4.10;;
38725;SDS011;24474;48.906;8.808;2023-05-07T05:58:29;6.25;;;4.07;;
38725;SDS011;24474;48.906;8.808;2023-05-07T06:00:55;5.35;;;3.67;;
38725;SDS011;24474;48.906;8.808;2023-05-07T06:03:24;8.15;;;4.65;;
38725;SDS011;24474;48.906;8.808;2023-05-07T06:05:51;7.13;;;5.25;;
38725;SDS011;24474;48.906;8.808;2023-05-07T06:08:17;5.82;;;3.65;;
38725;SDS011;24474;48.906;8.808;2023-05-07T06:10:44;4.95;;;3.47;;
38725;SDS011;24474;48.906;8.808;2023-05-07T06:13:10;6.53;;;3.40;;
38725;SDS011;24474;48.906;8.808;2023-05-07T06:15:37;4.43;;;3.40;;
38725;SDS011;24474;48.906;8.808;2023-05-07T06:18:03;4.50;;;3.42;;
38725;SDS011;24474;48.906;8.808;2023-05-07T06:20:30;6.95;;;3.38;;
38725;SDS011;24474;48.906;8.808;2023-05-07T06:22:55;5.28;;;3.53;;
38725;SDS011;24474;48.906;8.808;2023-05-07T06:25:23;6.70;;;3.42;;
38725;SDS011;24474;48.906;8.808;2023-05-07T06:27:51;5.95;;;3.70;;
38725;SDS011;24474;48.906;8.808;2023-05-07T06:30:16;7.55;;;3.63;;
38725;SDS011;24474;48.906;8.808;2023-05-07T06:32:42;6.20;;;3.70;;
38725;SDS011;24474;48.906;8.808;2023-05-07T06:35:11;4.10;;;3.42;;
38725;SDS011;24474;48.906;8.808;2023-05-07T06:37:38;5.78;;;3.78;;
38725;SDS011;24474;48.906;8.808;2023-05-07T06:40:05;5.55;;;3.90;;
38725;SDS011;24474;48.906;8.808;2023-05-07T06:42:32;5.47;;;3.60;;
38725;SDS011;24474;48.906;8.808;2023-05-07T06:44:59;6.30;;;3.47;;
38725;SDS011;24474;48.906;8.808;2023-05-07T06:47:24;5.25;;;3.60;;
38725;SDS011;24474;48.906;8.808;2023-05-07T06:49:50;4.10;;;3.35;;
38725;SDS011;24474;48.906;8.808;2023-05-07T06:52:15;6.93;;;3.63;;
38725;SDS011;24474;48.906;8.808;2023-05-07T06:54:42;4.38;;;3.35;;
38725;SDS011;24474;48.906;8.808;2023-05-07T06:57:20;5.50;;;3.25;;
38725;SDS011;24474;48.906;8.808;2023-05-07T06:59:47;4.97;;;3.30;;
38725;SDS011;24474;48.906;8.808;2023-05-07T07:02:13;4.53;;;3.22;;
38725;SDS011;24474;48.906;8.808;2023-05-07T07:04:47;4.38;;;3.17;;
38725;SDS011;24474;48.906;8.808;2023-05-07T07:07:15;6.43;;;2.97;;
38725;SDS011;24474;48.906;8.808;2023-05-07T07:09:42;3.75;;;2.75;;
38725;SDS011;24474;48.906;8.808;2023-05-07T07:12:09;4.78;;;2.80;;
38725;SDS011;24474;48.906;8.808;2023-05-07T07:14:35;3.85;;;2.78;;
38725;SDS011;24474;48.906;8.808;2023-05-07T07:17:01;4.80;;;2.83;;
38725;SDS011;24474;48.906;8.808;2023-05-07T07:19:28;4.95;;;2.90;;
38725;SDS011;24474;48.906;8.808;2023-05-07T07:21:55;6.30;;;3.33;;
38725;SDS011;24474;48.906;8.808;2023-05-07T07:24:22;4.70;;;2.90;;
38725;SDS011;24474;48.906;8.808;2023-05-07T07:26:48;4.28;;;2.92;;
38725;SDS011;24474;48.906;8.808;2023-05-07T07:29:16;4.88;;;2.67;;
38725;SDS011;24474;48.906;8.808;2023-05-07T07:31:45;6.40;;;2.83;;
38725;SDS011;24474;48.906;8.808;2023-05-07T07:34:13;5.20;;;2.80;;
38725;SDS011;24474;48.906;8.808;2023-05-07T07:36:39;6.30;;;3.00;;
38725;SDS011;24474;48.906;8.808;2023-05-07T07:39:06;4.28;;;2.90;;
38725;SDS011;24474;48.906;8.808;2023-05-07T07:41:32;3.92;;;2.70;;
38725;SDS011;24474;48.906;8.808;2023-05-07T07:43:58;5.65;;;2.85;;
38725;SDS011;24474;48.906;8.808;2023-05-07T07:46:28;5.32;;;2.65;;
38725;SDS011;24474;48.906;8.808;2023-05-07T07:48:56;4.90;;;2.90;;
38725;SDS011;24474;48.906;8.808;2023-05-07T07:51:26;3.53;;;2.80;;
38725;SDS011;24474;48.906;8.808;2023-05-07T07:53:53;4.32;;;3.10;;
38725;SDS011;24474;48.906;8.808;2023-05-07T07:56:20;3.70;;;2.70;;
38725;SDS011;24474;48.906;8.808;2023-05-07T07:58:47;4.05;;;2.60;;
38725;SDS011;24474;48.906;8.808;2023-05-07T08:01:14;5.88;;;2.80;;
38725;SDS011;24474;48.906;8.808;2023-05-07T08:03:43;5.03;;;3.20;;
38725;SDS011;24474;48.906;8.808;2023-05-07T08:06:10;6.22;;;3.00;;
38725;SDS011;24474;48.906;8.808;2023-05-07T08:08:36;4.32;;;2.90;;
38725;SDS011;24474;48.906;8.808;2023-05-07T08:11:02;3.58;;;2.72;;
38725;SDS011;24474;48.906;8.808;2023-05-07T08:13:28;4.63;;;3.03;;
38725;SDS011;24474;48.906;8.808;2023-05-07T08:15:53;5.97;;;2.75;;
38725;SDS011;24474;48.906;8.808;2023-05-07T08:18:19;4.90;;;2.80;;
38725;SDS011;24474;48.906;8.808;2023-05-07T08:20:45;3.88;;;3.00;;
38725;SDS011;24474;48.906;8.808;2023-05-07T08:23:12;4.35;;;2.63;;
38725;SDS011;24474;48.906;8.808;2023-05-07T08:25:39;4.35;;;2.42;;
38725;SDS011;24474;48.906;8.808;2023-05-07T08:28:05;4.30;;;2.47;;
38725;SDS011;24474;48.906;8.808;2023-05-07T08:30:32;5.70;;;3.00;;
38725;SDS011;24474;48.906;8.808;2023-05-07T08:32:57;5.25;;;2.70;;
38725;SDS011;24474;48.906;8.808;2023-05-07T08:35:24;5.35;;;2.45;;
38725;SDS011;24474;48.906;8.808;2023-05-07T08:37:53;4.45;;;3.08;;
38725;SDS011;24474;48.906;8.808;2023-05-07T08:40:21;4.10;;;3.05;;
38725;SDS011;24474;48.906;8.808;2023-05-07T08:42:51;5.25;;;3.25;;
38725;SDS011;24474;48.906;8.808;2023-05-07T08:45:18;5.10;;;2.80;;
38725;SDS011;24474;48.906;8.808;2023-05-07T08:47:50;5.45;;;2.75;;
38725;SDS011;24474;48.906;8.808;2023-05-07T08:50:23;4.90;;;2.65;;
38725;SDS011;24474;48.906;8.808;2023-05-07T08:52:49;6.70;;;2.90;;
38725;SDS011;24474;48.906;8.808;2023-05-07T08:55:15;5.70;;;2.80;;
38725;SDS011;24474;48.906;8.808;2023-05-07T08:57:40;7.03;;;3.13;;
38725;SDS011;24474;48.906;8.808;2023-05-07T09:00:06;3.92;;;2.90;;
38725;SDS011;24474;48.906;8.808;2023-05-07T09:02:34;5.55;;;2.45;;
38725;SDS011;24474;48.906;8.808;2023-05-07T09:05:01;4.07;;;3.00;;
38725;SDS011;24474;48.906;8.808;2023-05-07T09:07:27;4.38;;;2.58;;
38725;SDS011;24474;48.906;8.808;2023-05-07T09:09:53;3.75;;;2.55;;
38725;SDS011;24474;48.906;8.808;2023-05-07T09:12:20;4.80;;;2.83;;
38725;SDS011;24474;48.906;8.808;2023-05-07T09:14:46;4.35;;;2.63;;
38725;SDS011;24474;48.906;8.808;2023-05-07T09:17:12;3.40;;;2.63;;
38725;SDS011;24474;48.906;8.808;2023-05-07T09:19:38;5.63;;;2.50;;
38725;SDS011;24474;48.906;8.808;2023-05-07T09:22:08;4.43;;;2.75;;
38725;SDS011;24474;48.906;8.808;2023-05-07T09:24:34;3.53;;;2.83;;
38725;SDS011;24474;48.906;8.808;2023-05-07T09:27:02;5.43;;;3.17;;
38725;SDS011;24474;48.906;8.808;2023-05-07T09:29:31;4.00;;;2.53;;
38725;SDS011;24474;48.906;8.808;2023-05-07T09:32:09;3.90;;;2.88;;
38725;SDS011;24474;48.906;8.808;2023-05-07T09:34:35;4.90;;;2.53;;
38725;SDS011;24474;48.906;8.808;2023-05-07T09:37:02;3.72;;;2.70;;
38725;SDS011;24474;48.906;8.808;2023-05-07T09:39:42;4.88;;;2.80;;
38725;SDS011;24474;48.906;8.808;2023-05-07T09:42:12;4.40;;;3.00;;
38725;SDS011;24474;48.906;8.808;2023-05-07T09:44:39;5.55;;;3.22;;
38725;SDS011;24474;48.906;8.808;2023-05-07T09:47:06;6.60;;;3.50;;
38725;SDS011;24474;48.906;8.808;2023-05-07T09:49:33;5.10;;;3.15;;
38725;SDS011;24474;48.906;8.808;2023-05-07T09:52:01;5.25;;;3.20;;
38725;SDS011;24474;48.906;8.808;2023-05-07T09:54:28;5.10;;;2.80;;
38725;SDS011;24474;48.906;8.808;2023-05-07T09:56:55;4.10;;;3.00;;
38725;SDS011;24474;48.906;8.808;2023-05-07T09:59:22;4.70;;;2.90;;
38725;SDS011;24474;48.906;8.808;2023-05-07T10:01:48;4.13;;;3.35;;
38725;SDS011;24474;48.906;8.808;2023-05-07T10:04:14;3.83;;;2.65;;
38725;SDS011;24474;48.906;8.808;2023-05-07T10:06:40;4.72;;;2.65;;
38725;SDS011;24474;48.906;8.808;2023-05-07T10:09:07;5.22;;;3.00;;
38725;SDS011;24474;48.906;8.808;2023-05-07T10:11:33;6.53;;;2.88;;
38725;SDS011;24474;48.906;8.808;2023-05-07T10:14:00;4.97;;;2.90;;
38725;SDS011;24474;48.906;8.808;2023-05-07T10:16:35;9.52;;;3.35;;
38725;SDS011;24474;48.906;8.808;2023-05-07T10:19:08;5.60;;;2.83;;
38725;SDS011;24474;48.906;8.808;2023-05-07T10:21:37;4.15;;;2.90;;
38725;SDS011;24474;48.906;8.808;2023-05-07T10:24:19;4.25;;;2.83;;
38725;SDS011;24474;48.906;8.808;2023-05-07T10:26:50;4.32;;;2.67;;
38725;SDS011;24474;48.906;8.808;2023-05-07T10:32:11;7.18;;;3.15;;
38725;SDS011;24474;48.906;8.808;2023-05-07T10:34:58;5.85;;;3.00;;
38725;SDS011;24474;48.906;8.808;2023-05-07T10:37:27;4.30;;;3.10;;
38725;SDS011;24474;48.906;8.808;2023-05-07T10:39:54;4.38;;;2.80;;
38725;SDS011;24474;48.906;8.808;2023-05-07T10:42:20;3.67;;;2.63;;
38725;SDS011;24474;48.906;8.808;2023-05-07T10:44:46;5.13;;;2.90;;
38725;SDS011;24474;48.906;8.808;2023-05-07T10:47:12;4.22;;;3.10;;
38725;SDS011;24474;48.906;8.808;2023-05-07T10:52:19;5.40;;;2.53;;
38725;SDS011;24474;48.906;8.808;2023-05-07T10:54:48;5.60;;;3.03;;
38725;SDS011;24474;48.906;8.808;2023-05-07T10:57:43;5.22;;;3.22;;
38725;SDS011;24474;48.906;8.808;2023-05-07T11:05:25;3.42;;;2.63;;
38725;SDS011;24474;48.906;8.808;2023-05-07T11:07:56;4.18;;;2.63;;
38725;SDS011;24474;48.906;8.808;2023-05-07T11:10:22;5.23;;;3.57;;
38725;SDS011;24474;48.906;8.808;2023-05-07T11:12:48;4.53;;;2.75;;
38725;SDS011;24474;48.906;8.808;2023-05-07T11:15:15;4.20;;;2.90;;
38725;SDS011;24474;48.906;8.808;2023-05-07T11:17:59;5.07;;;2.80;;
38725;SDS011;24474;48.906;8.808;2023-05-07T11:26:09;4.13;;;2.70;;
38725;SDS011;24474;48.906;8.808;2023-05-07T11:28:36;4.60;;;2.58;;
38725;SDS011;24474;48.906;8.808;2023-05-07T11:31:03;3.63;;;2.53;;
38725;SDS011;24474;48.906;8.808;2023-05-07T11:33:30;5.20;;;2.80;;
38725;SDS011;24474;48.906;8.808;2023-05-07T11:35:56;5.00;;;2.60;;
38725;SDS011;24474;48.906;8.808;2023-05-07T11:38:23;4.90;;;3.22;;
38725;SDS011;24474;48.906;8.808;2023-05-07T11:40:55;4.50;;;2.70;;
38725;SDS011;24474;48.906;8.808;2023-05-07T11:43:22;3.15;;;2.50;;
38725;SDS011;24474;48.906;8.808;2023-05-07T11:45:48;3.35;;;2.30;;
38725;SDS011;24474;48.906;8.808;2023-05-07T11:48:14;4.38;;;2.55;;
38725;SDS011;24474;48.906;8.808;2023-05-07T11:50:54;4.70;;;2.70;;
38725;SDS011;24474;48.906;8.808;2023-05-07T11:53:41;4.95;;;2.80;;
38725;SDS011;24474;48.906;8.808;2023-05-07T11:56:10;5.65;;;2.83;;
38725;SDS011;24474;48.906;8.808;2023-05-07T11:58:38;7.30;;;2.95;;
38725;SDS011;24474;48.906;8.808;2023-05-07T12:01:06;3.13;;;2.20;;
38725;SDS011;24474;48.906;8.808;2023-05-07T12:03:34;5.03;;;2.20;;
38725;SDS011;24474;48.906;8.808;2023-05-07T12:06:01;5.05;;;2.30;;
38725;SDS011;24474;48.906;8.808;2023-05-07T12:08:28;4.03;;;2.30;;
38725;SDS011;24474;48.906;8.808;2023-05-07T12:10:54;5.03;;;2.33;;
38725;SDS011;24474;48.906;8.808;2023-05-07T12:13:22;4.68;;;2.38;;
38725;SDS011;24474;48.906;8.808;2023-05-07T12:15:50;6.40;;;2.05;;
38725;SDS011;24474;48.906;8.808;2023-05-07T12:18:21;4.38;;;2.20;;
38725;SDS011;24474;48.906;8.808;2023-05-07T12:20:48;3.85;;;2.20;;
38725;SDS011;24474;48.906;8.808;2023-05-07T12:23:16;3.55;;;2.22;;
38725;SDS011;24474;48.906;8.808;2023-05-07T12:25:43;4.80;;;1.90;;
38725;SDS011;24474;48.906;8.808;2023-05-07T12:28:16;3.10;;;1.80;;
38725;SDS011;24474;48.906;8.808;2023-05-07T12:30:45;6.78;;;2.33;;
38725;SDS011;24474;48.906;8.808;2023-05-07T12:33:14;3.10;;;1.83;;
38725;SDS011;24474;48.906;8.808;2023-05-07T12:35:47;2.78;;;2.00;;
38725;SDS011;24474;48.906;8.808;2023-05-07T12:38:14;2.65;;;1.70;;
38725;SDS011;24474;48.906;8.808;2023-05-07T12:40:46;3.92;;;2.28;;
38725;SDS011;24474;48.906;8.808;2023-05-07T12:43:27;4.63;;;2.80;;
38725;SDS011;24474;48.906;8.808;2023-05-07T12:45:55;5.28;;;2.40;;
38725;SDS011;24474;48.906;8.808;2023-05-07T12:48:45;5.07;;;2.15;;
38725;SDS011;24474;48.906;8.808;2023-05-07T12:51:11;3.80;;;1.77;;
38725;SDS011;24474;48.906;8.808;2023-05-07T12:53:42;3.75;;;1.92;;
38725;SDS011;24474;48.906;8.808;2023-05-07T12:56:11;2.83;;;2.17;;
38725;SDS011;24474;48.906;8.808;2023-05-07T12:58:42;4.22;;;2.10;;
38725;SDS011;24474;48.906;8.808;2023-05-07T13:01:11;2.83;;;1.90;;
38725;SDS011;24474;48.906;8.808;2023-05-07T13:03:47;4.28;;;2.00;;
38725;SDS011;24474;48.906;8.808;2023-05-07T13:06:17;5.22;;;1.77;;
38725;SDS011;24474;48.906;8.808;2023-05-07T13:08:43;2.80;;;1.58;;
38725;SDS011;24474;48.906;8.808;2023-05-07T13:11:10;3.67;;;1.75;;
38725;SDS011;24474;48.906;8.808;2023-05-07T13:13:37;3.05;;;1.63;;
38725;SDS011;24474;48.906;8.808;2023-05-07T13:16:06;4.93;;;1.40;;
38725;SDS011;24474;48.906;8.808;2023-05-07T13:18:34;4.65;;;1.60;;
38725;SDS011;24474;48.906;8.808;2023-05-07T13:21:01;4.45;;;1.33;;
38725;SDS011;24474;48.906;8.808;2023-05-07T13:23:31;2.85;;;1.30;;
38725;SDS011;24474;48.906;8.808;2023-05-07T13:25:58;3.92;;;1.60;;
38725;SDS011;24474;48.906;8.808;2023-05-07T13:28:25;3.42;;;1.10;;
38725;SDS011;24474;48.906;8.808;2023-05-07T13:30:52;3.17;;;1.25;;
38725;SDS011;24474;48.906;8.808;2023-05-07T13:33:23;9.48;;;1.67;;
38725;SDS011;24474;48.906;8.808;2023-05-07T13:35:57;6.68;;;2.10;;
38725;SDS011;24474;48.906;8.808;2023-05-07T13:38:27;4.05;;;1.63;;
38725;SDS011;24474;48.906;8.808;2023-05-07T13:40:55;3.60;;;1.75;;
38725;SDS011;24474;48.906;8.808;2023-05-07T13:43:20;2.70;;;1.80;;
38725;SDS011;24474;48.906;8.808;2023-05-07T13:45:47;3.30;;;1.52;;
38725;SDS011;24474;48.906;8.808;2023-05-07T13:48:15;5.35;;;1.90;;
38725;SDS011;24474;48.906;8.808;2023-05-07T13:50:42;5.07;;;2.03;;
38725;SDS011;24474;48.906;8.808;2023-05-07T13:53:15;3.30;;;1.95;;
38725;SDS011;24474;48.906;8.808;2023-05-07T13:55:44;5.07;;;2.20;;
38725;SDS011;24474;48.906;8.808;2023-05-07T13:58:12;4.50;;;2.15;;
38725;SDS011;24474;48.906;8.808;2023-05-07T14:00:37;5.03;;;2.20;;
38725;SDS011;24474;48.906;8.808;2023-05-07T14:03:04;7.13;;;2.30;;
38725;SDS011;24474;48.906;8.808;2023-05-07T14:05:39;5.22;;;2.00;;
38725;SDS011;24474;48.906;8.808;2023-05-07T14:08:17;8.30;;;2.00;;
38725;SDS011;24474;48.906;8.808;2023-05-07T14:10:45;4.60;;;1.48;;
38725;SDS011;24474;48.906;8.808;2023-05-07T14:13:11;5.70;;;2.70;;
38725;SDS011;24474;48.906;8.808;2023-05-07T14:15:37;6.72;;;2.90;;
38725;SDS011;24474;48.906;8.808;2023-05-07T14:18:02;4.82;;;2.00;;
38725;SDS011;24474;48.906;8.808;2023-05-07T14:20:28;3.80;;;1.80;;
38725;SDS011;24474;48.906;8.808;2023-05-07T14:23:01;3.38;;;1.42;;
38725;SDS011;24474;48.906;8.808;2023-05-07T14:25:37;4.88;;;1.85;;
38725;SDS011;24474;48.906;8.808;2023-05-07T14:28:03;4.65;;;1.60;;
38725;SDS011;24474;48.906;8.808;2023-05-07T14:30:33;4.30;;;1.80;;
38725;SDS011;24474;48.906;8.808;2023-05-07T14:36:02;3.63;;;1.70;;
38725;SDS011;24474;48.906;8.808;2023-05-07T14:38:39;3.72;;;1.63;;
38725;SDS011;24474;48.906;8.808;2023-05-07T14:41:10;4.30;;;1.60;;
38725;SDS011;24474;48.906;8.808;2023-05-07T14:43:49;5.28;;;1.40;;
38725;SDS011;24474;48.906;8.808;2023-05-07T14:46:19;2.92;;;1.60;;
38725;SDS011;24474;48.906;8.808;2023-05-07T14:49:02;2.00;;;1.13;;
38725;SDS011;24474;48.906;8.808;2023-05-07T14:51:29;3.42;;;1.50;;
38725;SDS011;24474;48.906;8.808;2023-05-07T14:53:57;3.00;;;1.60;;
38725;SDS011;24474;48.906;8.808;2023-05-07T14:56:22;3.78;;;1.38;;
38725;SDS011;24474;48.906;8.808;2023-05-07T14:58:49;3.85;;;1.40;;
38725;SDS011;24474;48.906;8.808;2023-05-07T15:01:20;2.92;;;1.20;;
38725;SDS011;24474;48.906;8.808;2023-05-07T15:03:45;3.20;;;1.50;;
38725;SDS011;24474;48.906;8.808;2023-05-07T15:06:12;3.95;;;1.65;;
38725;SDS011;24474;48.906;8.808;2023-05-07T15:08:39;2.05;;;1.38;;
38725;SDS011;24474;48.906;8.808;2023-05-07T15:11:09;3.58;;;1.55;;
38725;SDS011;24474;48.906;8.808;2023-05-07T15:13:35;3.00;;;1.42;;
38725;SDS011;24474;48.906;8.808;2023-05-07T15:16:01;3.28;;;1.35;;